createdAt,value
2024-05-09T00:00:41.252Z,14.06
2024-05-09T00:03:10.653Z,14.45
2024-05-09T00:05:45.658Z,14.48
2024-05-09T00:08:13.302Z,14.10
2024-05-09T00:10:41.418Z,14.84
2024-05-09T00:13:10.612Z,14.76
2024-05-09T00:15:38.966Z,13.88
2024-05-09T00:18:07.882Z,13.86
2024-05-09T00:20:39.685Z,13.88
2024-05-09T00:23:13.775Z,13.42
2024-05-09T00:25:45.572Z,13.53
2024-05-09T00:28:13.593Z,13.76
2024-05-09T00:30:41.286Z,14.22
2024-05-09T00:33:10.574Z,14.06
2024-05-09T00:35:39.564Z,14.03
2024-05-09T00:38:07.355Z,13.98
2024-05-09T00:40:40.544Z,13.40
2024-05-09T00:43:13.191Z,13.12
2024-05-09T00:45:41.853Z,13.34
2024-05-09T00:48:13.461Z,13.26
2024-05-09T00:50:44.840Z,13.48
2024-05-09T00:53:15.646Z,13.62
2024-05-09T00:55:43.849Z,13.97
2024-05-09T00:58:16.477Z,13.50
2024-05-09T01:00:44.600Z,13.10
2024-05-09T01:03:13.691Z,13.43
2024-05-09T01:05:43.638Z,13.39
2024-05-09T01:08:12.155Z,13.36
2024-05-09T01:10:42.607Z,13.43
2024-05-09T01:13:12.290Z,13.47
2024-05-09T01:15:39.755Z,13.47
2024-05-09T01:18:12.243Z,12.76
2024-05-09T01:20:43.932Z,13.01
2024-05-09T01:23:14.775Z,13.03
2024-05-09T01:25:45.661Z,12.82
2024-05-09T01:28:14.054Z,13.18
2024-05-09T01:30:41.771Z,12.72
2024-05-09T01:33:12.543Z,13.34
2024-05-09T01:35:42.030Z,12.58
2024-05-09T01:38:17.092Z,12.51
2024-05-09T01:40:45.073Z,12.54
2024-05-09T01:43:12.478Z,12.18
2024-05-09T01:45:40.689Z,12.95
2024-05-09T01:48:10.016Z,13.02
2024-05-09T01:50:41.431Z,12.48
2024-05-09T01:53:13.271Z,12.80
2024-05-09T01:55:41.555Z,12.97
2024-05-09T01:58:09.372Z,12.89
2024-05-09T02:00:40.786Z,12.46
2024-05-09T02:03:15.404Z,12.18
2024-05-09T02:05:47.735Z,12.51
2024-05-09T02:08:20.714Z,12.07
2024-05-09T02:10:50.135Z,12.55
2024-05-09T02:13:17.956Z,12.42
2024-05-09T02:15:45.286Z,11.84
2024-05-09T02:18:13.472Z,11.66
2024-05-09T02:20:42.524Z,11.86
2024-05-09T02:23:11.254Z,11.64
2024-05-09T02:25:38.753Z,11.97
2024-05-09T02:28:06.566Z,12.32
2024-05-09T02:30:39.726Z,11.98
2024-05-09T02:33:13.997Z,11.81
2024-05-09T02:35:44.111Z,12.27
2024-05-09T02:38:12.618Z,12.19
2024-05-09T02:40:40.716Z,12.44
2024-05-09T02:43:10.425Z,12.20
2024-05-09T02:45:42.149Z,12.29
2024-05-09T02:48:13.970Z,12.52
2024-05-09T02:50:44.024Z,12.47
2024-05-09T02:53:12.134Z,12.18
2024-05-09T02:55:40.451Z,12.02
2024-05-09T02:58:08.602Z,12.38
2024-05-09T03:00:40.222Z,12.49
2024-05-09T03:03:14.623Z,12.16
2024-05-09T03:05:44.527Z,11.93
2024-05-09T03:08:12.515Z,12.17
2024-05-09T03:10:40.166Z,12.34
2024-05-09T03:13:14.892Z,11.77
2024-05-09T03:15:44.505Z,11.80
2024-05-09T03:18:12.531Z,11.15
2024-05-09T03:20:40.496Z,10.86
2024-05-09T03:23:09.791Z,10.86
2024-05-09T03:25:38.987Z,10.99
2024-05-09T03:28:06.708Z,11.12
2024-05-09T03:30:40.452Z,11.34
2024-05-09T03:33:13.163Z,11.76
2024-05-09T03:35:41.757Z,11.65
2024-05-09T03:38:09.843Z,11.36
2024-05-09T03:40:44.833Z,11.35
2024-05-09T03:43:13.451Z,11.48
2024-05-09T03:45:40.966Z,11.94
2024-05-09T03:48:09.031Z,11.67
2024-05-09T03:50:37.244Z,11.70
2024-05-09T03:53:05.689Z,11.66
2024-05-09T03:55:32.987Z,11.98
2024-05-09T03:58:00.306Z,11.92
2024-05-09T04:00:35.582Z,11.78
2024-05-09T04:03:11.136Z,11.67
2024-05-09T04:05:42.855Z,11.60
2024-05-09T04:08:14.391Z,11.49
2024-05-09T04:10:41.868Z,11.34
2024-05-09T04:13:10.636Z,11.45
2024-05-09T04:15:37.928Z,12.01
2024-05-09T04:18:05.687Z,12.34
2024-05-09T04:20:38.411Z,12.40
2024-05-09T04:23:12.736Z,12.54
2024-05-09T04:25:45.242Z,12.61
2024-05-09T04:28:13.999Z,13.24
2024-05-09T04:30:42.219Z,13.40
2024-05-09T04:33:12.509Z,13.13
2024-05-09T04:35:45.130Z,12.95
2024-05-09T04:38:14.306Z,12.77
2024-05-09T04:40:42.270Z,12.91
2024-05-09T04:43:17.377Z,12.91
2024-05-09T04:45:45.128Z,12.51
2024-05-09T04:48:12.527Z,12.82
2024-05-09T04:50:40.239Z,12.47
2024-05-09T04:53:10.339Z,12.80
2024-05-09T04:55:39.921Z,12.78
2024-05-09T04:58:09.528Z,13.39
2024-05-09T05:00:38.864Z,13.79
2024-05-09T05:03:13.046Z,13.69
2024-05-09T05:05:44.894Z,13.21
2024-05-09T05:08:19.022Z,12.72
2024-05-09T05:10:48.248Z,12.75
2024-05-09T05:13:17.744Z,13.06
2024-05-09T05:15:47.302Z,12.77
2024-05-09T05:18:16.117Z,12.50
2024-05-09T05:20:44.534Z,13.60
2024-05-09T05:23:15.286Z,13.11
2024-05-09T05:25:43.900Z,13.39
2024-05-09T05:28:11.590Z,13.66
2024-05-09T05:30:41.060Z,13.83
2024-05-09T05:33:12.394Z,13.91
2024-05-09T05:35:41.752Z,14.55
2024-05-09T05:38:10.403Z,14.75
2024-05-09T05:40:39.050Z,14.48
2024-05-09T05:43:09.856Z,14.49
2024-05-09T05:45:38.592Z,14.58
2024-05-09T05:48:07.758Z,14.77
2024-05-09T05:50:37.694Z,15.28
2024-05-09T05:53:08.017Z,16.29
2024-05-09T05:55:40.903Z,16.61
2024-05-09T05:58:12.053Z,17.00
2024-05-09T06:00:41.919Z,17.18
2024-05-09T06:03:12.487Z,17.98
2024-05-09T06:05:40.899Z,18.25
2024-05-09T06:08:08.825Z,18.63
2024-05-09T06:10:39.506Z,18.97
2024-05-09T06:13:12.275Z,18.89
2024-05-09T06:15:40.837Z,18.93
2024-05-09T06:18:10.879Z,19.67
2024-05-09T06:20:44.233Z,20.36
2024-05-09T06:23:13.134Z,20.74
2024-05-09T06:25:41.794Z,21.00
2024-05-09T06:28:09.128Z,21.99
2024-05-09T06:30:40.405Z,22.92
2024-05-09T06:33:12.748Z,25.64
2024-05-09T06:35:42.091Z,27.80
2024-05-09T06:38:09.947Z,30.18
2024-05-09T06:40:41.918Z,32.16
2024-05-09T06:43:16.160Z,33.10
2024-05-09T06:45:46.923Z,34.00
2024-05-09T06:48:14.896Z,33.07
2024-05-09T06:50:42.287Z,34.03
2024-05-09T06:53:10.090Z,36.11
2024-05-09T06:55:37.987Z,36.27
2024-05-09T06:58:09.117Z,36.53
2024-05-09T07:00:39.824Z,37.84
2024-05-09T07:03:16.867Z,37.80
2024-05-09T07:05:47.704Z,38.05
2024-05-09T07:08:16.696Z,38.43
2024-05-09T07:10:45.089Z,38.76
2024-05-09T07:13:15.100Z,39.90
2024-05-09T07:15:43.810Z,40.42
2024-05-09T07:18:13.226Z,40.58
2024-05-09T07:20:41.452Z,41.19
2024-05-09T07:23:10.609Z,41.62
2024-05-09T07:25:40.649Z,41.05
2024-05-09T07:28:17.044Z,42.00
2024-05-09T07:30:45.188Z,40.62
2024-05-09T07:33:22.061Z,40.46
2024-05-09T07:35:51.210Z,40.69
2024-05-09T07:38:18.718Z,41.61
2024-05-09T07:40:46.271Z,42.13
2024-05-09T07:43:16.848Z,39.27
2024-05-09T07:45:52.311Z,33.98
2024-05-09T07:52:38.817Z,35.81
2024-05-09T07:53:47.650Z,37.47
2024-05-09T07:56:20.107Z,37.70
2024-05-09T07:58:51.540Z,30.02
2024-05-09T08:01:19.641Z,30.25
2024-05-09T08:03:49.543Z,31.68
2024-05-09T08:06:17.020Z,30.16
2024-05-09T08:08:46.783Z,30.57
2024-05-09T08:11:14.362Z,29.61
2024-05-09T08:13:41.658Z,27.29
2024-05-09T08:16:09.765Z,30.23
2024-05-09T08:18:37.315Z,31.88
2024-05-09T08:21:05.200Z,28.32
2024-05-09T08:23:32.512Z,28.73
2024-05-09T08:25:59.921Z,29.66
2024-05-09T08:28:28.106Z,31.40
2024-05-09T08:30:56.841Z,31.13
2024-05-09T08:33:24.451Z,28.16
2024-05-09T08:35:54.247Z,30.15
2024-05-09T08:38:21.600Z,32.45
2024-05-09T08:40:49.620Z,31.66
2024-05-09T08:43:20.280Z,27.91
2024-05-09T08:45:50.023Z,29.21
2024-05-09T08:48:19.767Z,27.93
2024-05-09T08:50:52.154Z,30.87
2024-05-09T08:53:20.024Z,33.35
2024-05-09T08:55:49.620Z,32.53
2024-05-09T08:58:19.238Z,31.96
2024-05-09T09:00:47.833Z,34.08
2024-05-09T09:03:24.869Z,35.40
2024-05-09T09:06:15.841Z,27.92
2024-05-09T09:08:45.715Z,28.56
2024-05-09T09:11:13.047Z,27.90
2024-05-09T09:13:40.569Z,29.83
2024-05-09T09:16:08.171Z,31.93
2024-05-09T09:18:35.535Z,32.59
2024-05-09T09:21:03.547Z,30.82
2024-05-09T09:23:30.989Z,28.76
2024-05-09T09:25:59.911Z,31.21
2024-05-09T09:28:27.402Z,29.23
2024-05-09T09:31:03.397Z,32.50
2024-05-09T09:33:36.307Z,31.49
2024-05-09T09:36:05.813Z,31.01
2024-05-09T09:38:37.846Z,33.16
2024-05-09T09:41:09.083Z,32.31
2024-05-09T09:43:37.870Z,28.77
2024-05-09T09:46:08.797Z,33.35
2024-05-09T09:48:40.493Z,36.38
2024-05-09T09:51:09.213Z,34.30
2024-05-09T09:53:38.573Z,36.98
2024-05-09T09:56:10.323Z,33.15
2024-05-09T09:58:40.207Z,35.18
2024-05-09T10:01:07.511Z,35.79
2024-05-09T10:03:36.124Z,36.29
2024-05-09T10:06:05.377Z,35.65
2024-05-09T10:08:34.134Z,35.78
2024-05-09T10:11:04.328Z,35.32
2024-05-09T10:13:35.988Z,30.92
2024-05-09T10:16:12.380Z,30.18
2024-05-09T10:18:41.455Z,29.55
2024-05-09T10:21:19.790Z,31.67
2024-05-09T10:24:02.490Z,31.58
2024-05-09T10:26:39.663Z,34.01
2024-05-09T10:29:15.233Z,33.91
2024-05-09T10:31:44.486Z,34.54
2024-05-09T10:34:21.012Z,35.91
2024-05-09T10:36:55.370Z,35.68
2024-05-09T10:39:25.152Z,35.83
2024-05-09T10:41:52.649Z,34.90
2024-05-09T10:44:21.897Z,33.73
2024-05-09T10:46:50.388Z,31.64
2024-05-09T10:49:17.984Z,32.11
2024-05-09T10:51:47.174Z,32.03
2024-05-09T10:54:14.643Z,32.18
2024-05-09T10:56:42.142Z,33.27
2024-05-09T10:59:09.416Z,34.23
2024-05-09T11:01:37.260Z,33.51
2024-05-09T11:04:05.622Z,32.97
2024-05-09T11:06:35.006Z,33.03
2024-05-09T11:09:02.395Z,31.53
2024-05-09T11:11:30.029Z,30.41
2024-05-09T11:13:57.270Z,26.65
2024-05-09T11:16:24.726Z,27.98
2024-05-09T11:18:57.899Z,29.56
2024-05-09T11:21:25.785Z,30.09
2024-05-09T11:23:53.340Z,30.49
2024-05-09T11:26:22.107Z,30.78
2024-05-09T11:28:50.649Z,27.69
2024-05-09T11:31:18.467Z,29.10
2024-05-09T11:33:46.677Z,33.37
2024-05-09T11:36:14.995Z,33.39
2024-05-09T11:38:43.061Z,31.10
2024-05-09T11:41:18.501Z,30.95
2024-05-09T11:43:46.049Z,28.54
2024-05-09T11:46:13.737Z,29.39
2024-05-09T11:48:41.610Z,29.13
2024-05-09T11:51:09.066Z,28.46
2024-05-09T11:53:36.503Z,28.58
2024-05-09T11:56:04.101Z,29.85
2024-05-09T11:58:37.037Z,31.54
2024-05-09T12:01:05.005Z,32.38
2024-05-09T12:03:34.269Z,34.04
2024-05-09T12:06:01.752Z,34.39
2024-05-09T12:08:29.240Z,32.76
2024-05-09T12:10:57.059Z,30.04
2024-05-09T12:13:24.730Z,26.78
2024-05-09T12:15:51.904Z,28.59
2024-05-09T12:18:19.268Z,27.55
2024-05-09T12:20:46.574Z,27.57
2024-05-09T12:23:13.815Z,28.88
2024-05-09T12:25:41.134Z,29.34
2024-05-09T12:28:09.078Z,29.38
2024-05-09T12:30:40.181Z,29.91
2024-05-09T12:33:13.522Z,28.76
2024-05-09T12:35:44.449Z,28.61
2024-05-09T12:38:15.310Z,29.74
2024-05-09T12:40:43.376Z,30.54
2024-05-09T12:43:11.657Z,30.94
2024-05-09T12:45:40.177Z,29.60
2024-05-09T12:48:12.044Z,29.58
2024-05-09T12:50:41.248Z,29.52
2024-05-09T12:53:08.903Z,29.09
2024-05-09T12:55:44.294Z,25.04
2024-05-09T12:58:21.831Z,26.31
2024-05-09T13:00:50.644Z,27.56
2024-05-09T13:03:18.024Z,26.69
2024-05-09T13:05:46.088Z,25.92
2024-05-09T13:08:14.035Z,27.77
2024-05-09T13:10:42.103Z,26.84
2024-05-09T13:13:10.905Z,25.70
2024-05-09T13:15:38.813Z,24.84
2024-05-09T13:18:06.937Z,26.75
2024-05-09T13:20:36.740Z,25.30
2024-05-09T13:23:07.244Z,27.24
2024-05-09T13:25:38.567Z,28.36
2024-05-09T13:28:07.626Z,27.72
2024-05-09T13:30:40.271Z,29.11
2024-05-09T13:33:11.922Z,29.99
2024-05-09T13:35:45.745Z,29.70
2024-05-09T13:38:18.236Z,29.32
2024-05-09T13:40:45.801Z,28.04
2024-05-09T13:43:14.084Z,28.00
2024-05-09T13:45:41.648Z,28.55
2024-05-09T13:48:10.140Z,27.81
2024-05-09T13:50:38.954Z,28.17
2024-05-09T13:53:07.765Z,27.81
2024-05-09T13:55:40.204Z,28.32
2024-05-09T13:58:09.020Z,28.33
2024-05-09T14:00:45.233Z,27.31
2024-05-09T14:03:18.686Z,28.78
2024-05-09T14:05:49.401Z,27.00
2024-05-09T14:08:20.291Z,27.11
2024-05-09T14:10:49.004Z,26.33
2024-05-09T14:13:16.995Z,26.54
2024-05-09T14:15:46.052Z,27.06
2024-05-09T14:18:14.432Z,28.27
2024-05-09T14:20:42.968Z,28.38
2024-05-09T14:23:14.430Z,27.37
2024-05-09T14:25:43.391Z,27.41
2024-05-09T14:28:13.058Z,27.66
2024-05-09T14:30:41.516Z,27.98
2024-05-09T14:33:09.613Z,28.70
2024-05-09T14:35:38.715Z,27.45
2024-05-09T14:38:08.708Z,27.89
2024-05-09T14:40:42.293Z,27.53
2024-05-09T14:43:15.871Z,27.71
2024-05-09T14:45:44.717Z,27.96
2024-05-09T14:48:14.956Z,24.25
2024-05-09T14:50:42.888Z,24.15
2024-05-09T14:53:12.313Z,24.86
2024-05-09T14:55:42.271Z,25.16
2024-05-09T14:58:11.977Z,26.54
2024-05-09T15:00:46.151Z,26.62
2024-05-09T15:03:18.730Z,27.32
2024-05-09T15:05:47.454Z,26.80
2024-05-09T15:08:17.310Z,26.56
2024-05-09T15:10:44.799Z,26.74
2024-05-09T15:13:14.392Z,27.52
2024-05-09T15:15:43.815Z,27.55
2024-05-09T15:18:11.385Z,27.34
2024-05-09T15:20:40.376Z,27.54
2024-05-09T15:23:07.811Z,26.34
2024-05-09T15:25:36.893Z,26.17
2024-05-09T15:28:07.345Z,25.70
2024-05-09T15:30:35.541Z,25.10
2024-05-09T15:33:07.073Z,25.16
2024-05-09T15:35:35.971Z,25.50
2024-05-09T15:38:04.260Z,26.64
2024-05-09T15:40:39.038Z,26.27
2024-05-09T15:43:10.191Z,25.62
2024-05-09T15:45:40.859Z,25.83
2024-05-09T15:48:10.226Z,26.77
2024-05-09T15:50:41.305Z,26.76
2024-05-09T15:53:13.117Z,26.21
2024-05-09T15:55:42.093Z,26.94
2024-05-09T15:58:10.166Z,26.38
2024-05-09T16:00:41.422Z,26.22
2024-05-09T16:03:12.499Z,26.40
2024-05-09T16:05:41.800Z,26.37
2024-05-09T16:08:10.246Z,26.22
2024-05-09T16:10:43.217Z,26.19
2024-05-09T16:13:12.199Z,25.95
2024-05-09T16:15:39.622Z,25.62
2024-05-09T16:18:07.420Z,25.35
2024-05-09T16:20:39.979Z,25.63
2024-05-09T16:23:10.110Z,25.68
2024-05-09T16:25:38.789Z,26.52
2024-05-09T16:28:09.940Z,26.35
2024-05-09T16:30:40.008Z,26.68
2024-05-09T16:33:08.658Z,25.77
2024-05-09T16:35:37.478Z,24.87
2024-05-09T16:38:06.047Z,25.42
2024-05-09T16:40:38.195Z,23.95
2024-05-09T16:43:13.185Z,25.52
2024-05-09T16:45:44.582Z,25.31
2024-05-09T16:48:13.179Z,25.21
2024-05-09T16:50:40.615Z,25.16
2024-05-09T16:53:08.687Z,25.76
2024-05-09T16:55:36.456Z,26.00
2024-05-09T16:58:05.116Z,26.09
2024-05-09T17:00:40.357Z,25.92
2024-05-09T17:03:14.436Z,24.79
2024-05-09T17:05:43.932Z,24.95
2024-05-09T17:08:12.107Z,24.63
2024-05-09T17:10:39.492Z,24.51
2024-05-09T17:13:08.038Z,24.63
2024-05-09T17:15:37.536Z,24.77
2024-05-09T17:18:07.352Z,24.54
2024-05-09T17:20:37.253Z,24.70
2024-05-09T17:23:13.131Z,24.60
2024-05-09T17:25:41.664Z,24.23
2024-05-09T17:28:10.521Z,23.99
2024-05-09T17:30:39.939Z,24.68
2024-05-09T17:33:10.406Z,24.68
2024-05-09T17:35:38.710Z,24.80
2024-05-09T17:38:06.864Z,24.75
2024-05-09T17:40:36.889Z,23.93
2024-05-09T17:43:08.391Z,23.47
2024-05-09T17:45:38.971Z,23.38
2024-05-09T17:48:07.833Z,23.24
2024-05-09T17:50:37.350Z,23.05
2024-05-09T17:53:06.536Z,23.38
2024-05-09T17:55:34.968Z,23.17
2024-05-09T17:58:03.382Z,23.28
2024-05-09T18:00:37.903Z,24.11
2024-05-09T18:03:13.199Z,24.32
2024-05-09T18:05:43.519Z,24.33
2024-05-09T18:08:12.242Z,24.04
2024-05-09T18:10:41.213Z,24.19
2024-05-09T18:13:09.660Z,24.12
2024-05-09T18:15:37.833Z,23.66
2024-05-09T18:18:06.817Z,23.41
2024-05-09T18:20:43.213Z,22.70
2024-05-09T18:23:16.337Z,22.82
2024-05-09T18:25:45.882Z,22.91
2024-05-09T18:28:13.671Z,23.01
2024-05-09T18:30:41.230Z,23.04
2024-05-09T18:33:11.189Z,22.71
2024-05-09T18:35:41.032Z,22.44
2024-05-09T18:38:10.219Z,22.07
2024-05-09T18:40:38.807Z,22.16
2024-05-09T18:43:08.903Z,22.23
2024-05-09T18:45:38.317Z,22.35
2024-05-09T18:48:08.243Z,22.01
2024-05-09T18:50:39.582Z,21.47
2024-05-09T18:53:11.411Z,21.42
2024-05-09T18:55:40.495Z,21.20
2024-05-09T18:58:07.821Z,21.45
2024-05-09T19:00:38.493Z,21.62
2024-05-09T19:03:10.768Z,21.39
2024-05-09T19:05:40.952Z,20.74
2024-05-09T19:08:09.111Z,20.51
2024-05-09T19:10:39.271Z,20.60
2024-05-09T19:13:11.890Z,20.45
2024-05-09T19:15:42.468Z,20.45
2024-05-09T19:18:13.226Z,20.37
2024-05-09T19:20:41.467Z,20.12
2024-05-09T19:23:09.598Z,20.14
2024-05-09T19:25:36.918Z,19.73
2024-05-09T19:28:05.665Z,19.79
2024-05-09T19:30:38.918Z,19.50
2024-05-09T19:33:11.260Z,19.50
2024-05-09T19:35:39.962Z,19.27
2024-05-09T19:38:07.620Z,19.23
2024-05-09T19:40:35.719Z,19.02
2024-05-09T19:43:05.130Z,18.99
2024-05-09T19:45:35.138Z,18.92
2024-05-09T19:48:04.679Z,18.87
2024-05-09T19:50:40.428Z,18.93
2024-05-09T19:53:12.834Z,18.54
2024-05-09T19:55:41.256Z,18.75
2024-05-09T19:58:10.201Z,18.53
2024-05-09T20:00:41.487Z,18.35
2024-05-09T20:03:13.176Z,18.59
2024-05-09T20:05:44.346Z,18.24
2024-05-09T20:08:12.740Z,18.34
2024-05-09T20:10:40.104Z,18.31
2024-05-09T20:13:10.109Z,18.29
2024-05-09T20:15:38.077Z,18.33
2024-05-09T20:18:06.756Z,18.00
2024-05-09T20:20:39.376Z,17.96
2024-05-09T20:23:11.252Z,18.02
2024-05-09T20:25:39.180Z,17.72
2024-05-09T20:28:07.134Z,17.52
2024-05-09T20:30:36.064Z,17.67
2024-05-09T20:33:07.376Z,17.54
2024-05-09T20:35:36.109Z,17.42
2024-05-09T20:38:04.349Z,17.43
2024-05-09T20:40:36.430Z,17.31
2024-05-09T20:43:08.619Z,17.37
2024-05-09T20:45:36.425Z,17.44
2024-05-09T20:48:04.306Z,17.31
2024-05-09T20:50:38.164Z,17.07
2024-05-09T20:53:13.549Z,17.18
2024-05-09T20:55:43.954Z,17.30
2024-05-09T20:58:12.195Z,17.48
2024-05-09T21:00:43.224Z,17.16
2024-05-09T21:03:16.181Z,17.01
2024-05-09T21:05:45.370Z,17.09
2024-05-09T21:08:12.848Z,17.28
2024-05-09T21:10:40.210Z,17.28
2024-05-09T21:13:07.655Z,16.89
2024-05-09T21:15:36.003Z,16.75
2024-05-09T21:18:04.558Z,16.73
2024-05-09T21:20:34.425Z,16.83
2024-05-09T21:23:02.606Z,16.39
2024-05-09T21:25:30.930Z,16.17
2024-05-09T21:27:58.538Z,16.14
2024-05-09T21:30:33.163Z,16.61
2024-05-09T21:33:10.236Z,16.51
2024-05-09T21:35:39.120Z,16.18
2024-05-09T21:38:07.335Z,16.14
2024-05-09T21:40:36.676Z,15.87
2024-05-09T21:43:07.396Z,15.72
2024-05-09T21:45:35.957Z,15.73
2024-05-09T21:48:04.866Z,16.34
2024-05-09T21:50:39.346Z,16.64
2024-05-09T21:53:09.864Z,16.34
2024-05-09T21:55:37.197Z,15.84
2024-05-09T21:58:04.878Z,15.86
2024-05-09T22:00:39.574Z,15.74
2024-05-09T22:03:08.668Z,15.57
2024-05-09T22:05:37.574Z,15.82
2024-05-09T22:08:05.940Z,16.10
2024-05-09T22:10:35.619Z,15.82
2024-05-09T22:13:06.560Z,15.65
2024-05-09T22:15:40.030Z,15.22
2024-05-09T22:18:09.866Z,15.50
2024-05-09T22:20:45.530Z,15.24
2024-05-09T22:23:14.449Z,15.05
2024-05-09T22:25:42.443Z,14.65
2024-05-09T22:28:10.058Z,14.77
2024-05-09T22:30:39.684Z,14.56
2024-05-09T22:33:09.763Z,15.13
2024-05-09T22:35:38.602Z,14.68
2024-05-09T22:38:06.686Z,14.76
2024-05-09T22:40:43.393Z,14.62
2024-05-09T22:43:24.201Z,14.33
2024-05-09T22:45:55.979Z,14.61
2024-05-09T22:48:25.302Z,15.26
2024-05-09T22:50:53.809Z,15.28
2024-05-09T22:53:25.540Z,14.48
2024-05-09T22:55:53.374Z,14.25
2024-05-09T22:58:21.339Z,14.80
2024-05-09T23:00:48.810Z,14.46
2024-05-09T23:03:16.868Z,14.66
2024-05-09T23:05:44.426Z,15.07
2024-05-09T23:08:11.738Z,14.44
2024-05-09T23:10:39.116Z,13.56
2024-05-09T23:13:08.163Z,13.60
2024-05-09T23:15:38.471Z,13.67
2024-05-09T23:18:06.836Z,14.02
2024-05-09T23:20:38.436Z,14.00
2024-05-09T23:23:11.683Z,14.17
2024-05-09T23:25:41.671Z,14.29
2024-05-09T23:28:10.474Z,13.79
2024-05-09T23:30:40.366Z,13.65
2024-05-09T23:33:13.590Z,13.85
2024-05-09T23:35:46.306Z,13.42
2024-05-09T23:38:13.618Z,13.28
2024-05-09T23:40:42.325Z,13.59
2024-05-09T23:43:12.131Z,13.65
2024-05-09T23:45:40.946Z,13.80
2024-05-09T23:48:09.174Z,13.68
2024-05-09T23:50:38.767Z,13.41
2024-05-09T23:53:09.195Z,13.42
2024-05-09T23:55:37.926Z,13.15
2024-05-09T23:58:06.957Z,13.37
